sensor_id;sensor_type;location;lat;lon;timestamp;temperature;humidity
19174;DHT22;9719;49.322;8.536;2023-07-13T00:01:12;26.70;69.00
19174;DHT22;9719;49.322;8.536;2023-07-13T00:06:14;26.70;69.20
19174;DHT22;9719;49.322;8.536;2023-07-13T00:11:17;26.70;69.20
19174;DHT22;9719;49.322;8.536;2023-07-13T00:16:19;26.70;69.10
19174;DHT22;9719;49.322;8.536;2023-07-13T00:21:21;26.70;69.10
19174;DHT22;9719;49.322;8.536;2023-07-13T00:26:24;26.70;69.00
19174;DHT22;9719;49.322;8.536;2023-07-13T00:31:26;26.70;69.00
19174;DHT22;9719;49.322;8.536;2023-07-13T00:36:27;26.70;68.70
19174;DHT22;9719;49.322;8.536;2023-07-13T00:41:30;26.70;68.50
19174;DHT22;9719;49.322;8.536;2023-07-13T00:46:33;26.70;68.50
19174;DHT22;9719;49.322;8.536;2023-07-13T00:51:37;26.70;68.40
19174;DHT22;9719;49.322;8.536;2023-07-13T00:56:43;26.70;68.40
19174;DHT22;9719;49.322;8.536;2023-07-13T01:01:46;26.60;68.00
19174;DHT22;9719;49.322;8.536;2023-07-13T01:06:48;26.60;68.00
19174;DHT22;9719;49.322;8.536;2023-07-13T01:11:51;26.60;67.90
19174;DHT22;9719;49.322;8.536;2023-07-13T01:16:54;26.60;67.80
19174;DHT22;9719;49.322;8.536;2023-07-13T01:21:57;26.60;67.80
19174;DHT22;9719;49.322;8.536;2023-07-13T01:26:59;26.60;67.70
19174;DHT22;9719;49.322;8.536;2023-07-13T01:32:01;26.60;67.70
19174;DHT22;9719;49.322;8.536;2023-07-13T01:37:05;26.60;67.70
19174;DHT22;9719;49.322;8.536;2023-07-13T01:42:06;26.60;67.60
19174;DHT22;9719;49.322;8.536;2023-07-13T01:47:08;26.60;67.70
19174;DHT22;9719;49.322;8.536;2023-07-13T01:52:11;26.50;67.50
19174;DHT22;9719;49.322;8.536;2023-07-13T01:57:13;26.50;67.50
19174;DHT22;9719;49.322;8.536;2023-07-13T02:02:14;26.50;67.50
19174;DHT22;9719;49.322;8.536;2023-07-13T02:07:17;26.50;67.40
19174;DHT22;9719;49.322;8.536;2023-07-13T02:12:19;26.50;67.30
19174;DHT22;9719;49.322;8.536;2023-07-13T02:17:21;26.40;67.20
19174;DHT22;9719;49.322;8.536;2023-07-13T02:22:24;26.40;67.10
19174;DHT22;9719;49.322;8.536;2023-07-13T02:27:26;26.40;67.10
19174;DHT22;9719;49.322;8.536;2023-07-13T02:32:28;26.40;67.10
19174;DHT22;9719;49.322;8.536;2023-07-13T02:37:30;26.40;67.10
19174;DHT22;9719;49.322;8.536;2023-07-13T02:42:32;26.30;67.10
19174;DHT22;9719;49.322;8.536;2023-07-13T02:47:34;26.30;67.30
19174;DHT22;9719;49.322;8.536;2023-07-13T02:52:37;26.30;67.60
19174;DHT22;9719;49.322;8.536;2023-07-13T02:57:39;26.40;67.80
19174;DHT22;9719;49.322;8.536;2023-07-13T03:02:41;26.40;67.90
19174;DHT22;9719;49.322;8.536;2023-07-13T03:07:44;26.50;68.10
19174;DHT22;9719;49.322;8.536;2023-07-13T03:12:45;26.50;68.20
19174;DHT22;9719;49.322;8.536;2023-07-13T03:17:47;26.50;68.30
19174;DHT22;9719;49.322;8.536;2023-07-13T03:22:50;26.50;68.40
19174;DHT22;9719;49.322;8.536;2023-07-13T03:27:52;26.60;68.60
19174;DHT22;9719;49.322;8.536;2023-07-13T03:32:53;26.60;68.70
19174;DHT22;9719;49.322;8.536;2023-07-13T03:37:56;26.60;68.90
19174;DHT22;9719;49.322;8.536;2023-07-13T03:42:59;26.50;68.90
19174;DHT22;9719;49.322;8.536;2023-07-13T03:48:03;26.60;69.10
19174;DHT22;9719;49.322;8.536;2023-07-13T03:53:07;26.60;69.10
19174;DHT22;9719;49.322;8.536;2023-07-13T03:58:27;26.60;69.20
19174;DHT22;9719;49.322;8.536;2023-07-13T04:03:29;26.60;69.20
19174;DHT22;9719;49.322;8.536;2023-07-13T04:08:35;26.50;69.30
19174;DHT22;9719;49.322;8.536;2023-07-13T04:13:37;26.50;69.40
19174;DHT22;9719;49.322;8.536;2023-07-13T04:18:39;26.60;69.60
19174;DHT22;9719;49.322;8.536;2023-07-13T04:23:43;26.60;69.60
19174;DHT22;9719;49.322;8.536;2023-07-13T04:28:44;26.60;69.70
19174;DHT22;9719;49.322;8.536;2023-07-13T04:33:46;26.60;69.80
19174;DHT22;9719;49.322;8.536;2023-07-13T04:38:49;26.60;69.80
19174;DHT22;9719;49.322;8.536;2023-07-13T04:43:50;26.60;69.90
19174;DHT22;9719;49.322;8.536;2023-07-13T04:48:52;26.50;69.90
19174;DHT22;9719;49.322;8.536;2023-07-13T04:53:56;26.60;70.10
19174;DHT22;9719;49.322;8.536;2023-07-13T04:58:57;26.50;70.10
19174;DHT22;9719;49.322;8.536;2023-07-13T05:03:59;26.60;70.20
19174;DHT22;9719;49.322;8.536;2023-07-13T05:09:02;26.50;70.10
19174;DHT22;9719;49.322;8.536;2023-07-13T05:14:04;26.50;70.10
19174;DHT22;9719;49.322;8.536;2023-07-13T05:19:06;26.50;69.50
19174;DHT22;9719;49.322;8.536;2023-07-13T05:24:09;26.20;69.40
19174;DHT22;9719;49.322;8.536;2023-07-13T05:29:10;26.00;69.40
19174;DHT22;9719;49.322;8.536;2023-07-13T05:34:12;25.90;69.90
19174;DHT22;9719;49.322;8.536;2023-07-13T05:39:15;25.70;70.00
19174;DHT22;9719;49.322;8.536;2023-07-13T05:44:17;25.60;70.10
19174;DHT22;9719;49.322;8.536;2023-07-13T05:49:19;25.50;70.10
19174;DHT22;9719;49.322;8.536;2023-07-13T05:54:22;25.40;70.30
19174;DHT22;9719;49.322;8.536;2023-07-13T05:59:24;25.30;70.80
19174;DHT22;9719;49.322;8.536;2023-07-13T06:04:26;25.20;71.50
19174;DHT22;9719;49.322;8.536;2023-07-13T06:09:29;25.20;71.80
19174;DHT22;9719;49.322;8.536;2023-07-13T06:14:30;25.10;71.50
19174;DHT22;9719;49.322;8.536;2023-07-13T06:19:32;25.10;71.50
19174;DHT22;9719;49.322;8.536;2023-07-13T06:24:35;25.00;71.50
19174;DHT22;9719;49.322;8.536;2023-07-13T06:29:36;25.00;72.00
19174;DHT22;9719;49.322;8.536;2023-07-13T06:34:38;25.00;71.80
19174;DHT22;9719;49.322;8.536;2023-07-13T06:39:41;24.90;71.90
19174;DHT22;9719;49.322;8.536;2023-07-13T06:44:43;24.90;71.90
19174;DHT22;9719;49.322;8.536;2023-07-13T06:49:44;24.90;71.70
19174;DHT22;9719;49.322;8.536;2023-07-13T06:54:47;25.00;71.50
19174;DHT22;9719;49.322;8.536;2023-07-13T06:59:49;25.00;71.60
19174;DHT22;9719;49.322;8.536;2023-07-13T07:04:51;25.00;71.10
19174;DHT22;9719;49.322;8.536;2023-07-13T07:09:56;25.00;70.70
19174;DHT22;9719;49.322;8.536;2023-07-13T07:14:57;25.00;70.40
19174;DHT22;9719;49.322;8.536;2023-07-13T07:19:59;25.00;70.70
19174;DHT22;9719;49.322;8.536;2023-07-13T07:25:02;25.00;70.40
19174;DHT22;9719;49.322;8.536;2023-07-13T07:30:05;25.00;70.50
19174;DHT22;9719;49.322;8.536;2023-07-13T07:35:07;25.10;70.60
19174;DHT22;9719;49.322;8.536;2023-07-13T07:40:10;25.10;70.60
19174;DHT22;9719;49.322;8.536;2023-07-13T07:45:12;25.20;70.60
19174;DHT22;9719;49.322;8.536;2023-07-13T07:50:14;25.20;70.60
19174;DHT22;9719;49.322;8.536;2023-07-13T07:55:17;25.30;71.40
19174;DHT22;9719;49.322;8.536;2023-07-13T08:00:19;25.30;70.50
19174;DHT22;9719;49.322;8.536;2023-07-13T08:05:21;25.40;70.60
19174;DHT22;9719;49.322;8.536;2023-07-13T08:10:24;25.40;70.60
19174;DHT22;9719;49.322;8.536;2023-07-13T08:15:26;25.40;70.60
19174;DHT22;9719;49.322;8.536;2023-07-13T08:20:28;25.50;70.60
19174;DHT22;9719;49.322;8.536;2023-07-13T08:25:31;25.50;70.60
19174;DHT22;9719;49.322;8.536;2023-07-13T08:30:33;25.50;70.50
19174;DHT22;9719;49.322;8.536;2023-07-13T08:35:34;25.60;70.60
19174;DHT22;9719;49.322;8.536;2023-07-13T08:40:39;25.60;70.50
19174;DHT22;9719;49.322;8.536;2023-07-13T08:45:43;25.70;70.60
19174;DHT22;9719;49.322;8.536;2023-07-13T08:50:50;25.70;70.60
19174;DHT22;9719;49.322;8.536;2023-07-13T08:55:58;25.70;70.50
19174;DHT22;9719;49.322;8.536;2023-07-13T09:01:06;25.70;70.50
19174;DHT22;9719;49.322;8.536;2023-07-13T09:06:14;25.70;70.50
19174;DHT22;9719;49.322;8.536;2023-07-13T09:11:30;25.80;70.50
19174;DHT22;9719;49.322;8.536;2023-07-13T09:16:36;25.80;70.40
19174;DHT22;9719;49.322;8.536;2023-07-13T09:21:41;25.80;70.40
19174;DHT22;9719;49.322;8.536;2023-07-13T09:26:45;25.80;70.50
19174;DHT22;9719;49.322;8.536;2023-07-13T09:31:52;25.90;70.60
19174;DHT22;9719;49.322;8.536;2023-07-13T09:36:54;25.90;70.50
19174;DHT22;9719;49.322;8.536;2023-07-13T09:42:01;25.90;70.70
19174;DHT22;9719;49.322;8.536;2023-07-13T09:47:15;26.00;70.90
19174;DHT22;9719;49.322;8.536;2023-07-13T09:52:17;26.00;71.10
19174;DHT22;9719;49.322;8.536;2023-07-13T09:57:23;26.10;71.40
19174;DHT22;9719;49.322;8.536;2023-07-13T10:02:28;26.10;71.50
19174;DHT22;9719;49.322;8.536;2023-07-13T10:07:31;26.10;71.90
19174;DHT22;9719;49.322;8.536;2023-07-13T10:12:37;26.10;71.60
19174;DHT22;9719;49.322;8.536;2023-07-13T10:17:39;26.20;71.70
19174;DHT22;9719;49.322;8.536;2023-07-13T10:22:45;26.20;71.60
19174;DHT22;9719;49.322;8.536;2023-07-13T10:27:56;26.20;71.30
19174;DHT22;9719;49.322;8.536;2023-07-13T10:33:03;26.30;70.00
19174;DHT22;9719;49.322;8.536;2023-07-13T10:38:06;26.30;69.50
19174;DHT22;9719;49.322;8.536;2023-07-13T10:43:14;26.40;68.50
19174;DHT22;9719;49.322;8.536;2023-07-13T10:48:18;26.40;68.80
19174;DHT22;9719;49.322;8.536;2023-07-13T10:53:30;26.40;68.30
19174;DHT22;9719;49.322;8.536;2023-07-13T10:58:35;26.50;67.80
19174;DHT22;9719;49.322;8.536;2023-07-13T11:03:46;26.50;67.50
19174;DHT22;9719;49.322;8.536;2023-07-13T11:08:54;26.50;67.60
19174;DHT22;9719;49.322;8.536;2023-07-13T11:13:58;26.60;67.90
19174;DHT22;9719;49.322;8.536;2023-07-13T11:19:37;26.60;67.10
19174;DHT22;9719;49.322;8.536;2023-07-13T11:24:58;26.70;67.10
19174;DHT22;9719;49.322;8.536;2023-07-13T11:35:26;26.70;67.80
19174;DHT22;9719;49.322;8.536;2023-07-13T11:40:29;26.70;67.60
19174;DHT22;9719;49.322;8.536;2023-07-13T11:45:34;26.70;66.80
19174;DHT22;9719;49.322;8.536;2023-07-13T11:50:36;26.80;66.90
19174;DHT22;9719;49.322;8.536;2023-07-13T11:55:38;26.80;67.10
19174;DHT22;9719;49.322;8.536;2023-07-13T12:00:41;26.80;67.00
19174;DHT22;9719;49.322;8.536;2023-07-13T12:05:56;26.90;66.70
19174;DHT22;9719;49.322;8.536;2023-07-13T12:11:04;26.90;67.30
19174;DHT22;9719;49.322;8.536;2023-07-13T12:16:17;26.80;67.40
19174;DHT22;9719;49.322;8.536;2023-07-13T12:21:27;26.70;67.40
19174;DHT22;9719;49.322;8.536;2023-07-13T12:26:30;26.60;67.30
19174;DHT22;9719;49.322;8.536;2023-07-13T12:31:36;26.50;67.30
19174;DHT22;9719;49.322;8.536;2023-07-13T12:36:41;26.50;67.20
19174;DHT22;9719;49.322;8.536;2023-07-13T12:41:47;26.40;66.90
19174;DHT22;9719;49.322;8.536;2023-07-13T12:46:57;26.30;66.70
19174;DHT22;9719;49.322;8.536;2023-07-13T12:52:01;26.30;66.40
19174;DHT22;9719;49.322;8.536;2023-07-13T12:57:04;26.20;66.30
19174;DHT22;9719;49.322;8.536;2023-07-13T13:02:25;26.20;66.20
19174;DHT22;9719;49.322;8.536;2023-07-13T13:07:28;26.20;65.70
19174;DHT22;9719;49.322;8.536;2023-07-13T13:12:30;26.20;66.00
19174;DHT22;9719;49.322;8.536;2023-07-13T13:17:34;26.10;65.90
19174;DHT22;9719;49.322;8.536;2023-07-13T13:22:36;26.10;65.80
19174;DHT22;9719;49.322;8.536;2023-07-13T13:27:39;26.10;65.60
19174;DHT22;9719;49.322;8.536;2023-07-13T13:32:45;26.00;65.50
19174;DHT22;9719;49.322;8.536;2023-07-13T13:37:47;26.00;65.50
19174;DHT22;9719;49.322;8.536;2023-07-13T13:42:50;26.00;65.50
19174;DHT22;9719;49.322;8.536;2023-07-13T13:47:55;26.00;65.40
19174;DHT22;9719;49.322;8.536;2023-07-13T13:52:56;26.00;65.80
19174;DHT22;9719;49.322;8.536;2023-07-13T13:57:58;26.00;65.30
19174;DHT22;9719;49.322;8.536;2023-07-13T14:03:01;26.00;65.30
19174;DHT22;9719;49.322;8.536;2023-07-13T14:08:03;25.90;65.20
19174;DHT22;9719;49.322;8.536;2023-07-13T14:13:05;25.90;65.10
19174;DHT22;9719;49.322;8.536;2023-07-13T14:18:12;25.90;65.10
19174;DHT22;9719;49.322;8.536;2023-07-13T14:23:18;25.90;64.90
19174;DHT22;9719;49.322;8.536;2023-07-13T14:28:23;25.90;64.90
19174;DHT22;9719;49.322;8.536;2023-07-13T14:33:26;25.80;64.70
19174;DHT22;9719;49.322;8.536;2023-07-13T14:38:28;25.80;64.60
19174;DHT22;9719;49.322;8.536;2023-07-13T14:43:30;25.80;64.70
19174;DHT22;9719;49.322;8.536;2023-07-13T14:48:33;25.80;65.10
19174;DHT22;9719;49.322;8.536;2023-07-13T14:53:34;25.80;65.10
19174;DHT22;9719;49.322;8.536;2023-07-13T14:58:38;25.80;65.40
19174;DHT22;9719;49.322;8.536;2023-07-13T15:03:45;25.80;65.30
19174;DHT22;9719;49.322;8.536;2023-07-13T15:08:47;25.80;65.40
19174;DHT22;9719;49.322;8.536;2023-07-13T15:13:49;25.80;65.60
19174;DHT22;9719;49.322;8.536;2023-07-13T15:18:53;26.00;65.90
19174;DHT22;9719;49.322;8.536;2023-07-13T15:23:54;26.10;66.00
19174;DHT22;9719;49.322;8.536;2023-07-13T15:28:56;26.20;66.00
19174;DHT22;9719;49.322;8.536;2023-07-13T15:33:59;26.20;66.00
19174;DHT22;9719;49.322;8.536;2023-07-13T15:39:01;26.30;66.00
19174;DHT22;9719;49.322;8.536;2023-07-13T15:44:07;26.40;65.30
19174;DHT22;9719;49.322;8.536;2023-07-13T15:49:21;26.50;65.80
19174;DHT22;9719;49.322;8.536;2023-07-13T15:54:23;26.50;65.90
19174;DHT22;9719;49.322;8.536;2023-07-13T15:59:25;26.60;66.00
19174;DHT22;9719;49.322;8.536;2023-07-13T16:04:28;26.60;66.30
19174;DHT22;9719;49.322;8.536;2023-07-13T16:09:29;26.70;66.40
19174;DHT22;9719;49.322;8.536;2023-07-13T16:14:31;26.70;66.50
19174;DHT22;9719;49.322;8.536;2023-07-13T16:19:34;26.70;66.60
19174;DHT22;9719;49.322;8.536;2023-07-13T16:24:35;26.70;66.40
19174;DHT22;9719;49.322;8.536;2023-07-13T16:29:37;26.80;66.80
19174;DHT22;9719;49.322;8.536;2023-07-13T16:34:42;26.80;66.90
19174;DHT22;9719;49.322;8.536;2023-07-13T16:39:47;26.90;67.00
19174;DHT22;9719;49.322;8.536;2023-07-13T16:44:49;26.90;67.30
19174;DHT22;9719;49.322;8.536;2023-07-13T16:49:52;26.90;67.50
19174;DHT22;9719;49.322;8.536;2023-07-13T16:54:58;27.00;67.50
19174;DHT22;9719;49.322;8.536;2023-07-13T16:59:59;27.00;67.70
19174;DHT22;9719;49.322;8.536;2023-07-13T17:05:04;27.00;67.00
19174;DHT22;9719;49.322;8.536;2023-07-13T17:10:21;27.00;66.60
19174;DHT22;9719;49.322;8.536;2023-07-13T17:15:24;27.10;67.50
19174;DHT22;9719;49.322;8.536;2023-07-13T17:20:30;27.10;66.10
19174;DHT22;9719;49.322;8.536;2023-07-13T17:25:37;27.10;63.60
19174;DHT22;9719;49.322;8.536;2023-07-13T17:30:41;27.10;62.60
19174;DHT22;9719;49.322;8.536;2023-07-13T17:35:45;27.10;62.30
19174;DHT22;9719;49.322;8.536;2023-07-13T17:40:46;27.10;61.70
19174;DHT22;9719;49.322;8.536;2023-07-13T17:45:48;27.10;61.30
19174;DHT22;9719;49.322;8.536;2023-07-13T17:50:53;27.10;60.60
19174;DHT22;9719;49.322;8.536;2023-07-13T17:55:56;27.10;60.10
19174;DHT22;9719;49.322;8.536;2023-07-13T18:00:58;27.10;59.80
19174;DHT22;9719;49.322;8.536;2023-07-13T18:06:02;27.10;59.60
19174;DHT22;9719;49.322;8.536;2023-07-13T18:11:04;27.10;60.10
19174;DHT22;9719;49.322;8.536;2023-07-13T18:16:13;27.10;59.40
19174;DHT22;9719;49.322;8.536;2023-07-13T18:21:17;27.10;59.40
19174;DHT22;9719;49.322;8.536;2023-07-13T18:26:19;27.10;59.60
19174;DHT22;9719;49.322;8.536;2023-07-13T18:31:23;27.10;59.80
19174;DHT22;9719;49.322;8.536;2023-07-13T18:36:27;27.10;60.00
19174;DHT22;9719;49.322;8.536;2023-07-13T18:41:29;27.10;60.10
19174;DHT22;9719;49.322;8.536;2023-07-13T18:46:32;27.00;60.00
19174;DHT22;9719;49.322;8.536;2023-07-13T18:51:37;27.00;60.10
19174;DHT22;9719;49.322;8.536;2023-07-13T18:56:38;27.00;60.10
19174;DHT22;9719;49.322;8.536;2023-07-13T19:01:40;27.00;59.90
19174;DHT22;9719;49.322;8.536;2023-07-13T19:06:43;26.90;60.10
19174;DHT22;9719;49.322;8.536;2023-07-13T19:11:45;26.90;60.30
19174;DHT22;9719;49.322;8.536;2023-07-13T19:16:47;26.80;60.10
19174;DHT22;9719;49.322;8.536;2023-07-13T19:21:51;26.80;60.30
19174;DHT22;9719;49.322;8.536;2023-07-13T19:26:54;26.70;60.10
19174;DHT22;9719;49.322;8.536;2023-07-13T19:31:58;26.70;60.30
19174;DHT22;9719;49.322;8.536;2023-07-13T19:37:02;26.60;60.50
19174;DHT22;9719;49.322;8.536;2023-07-13T19:42:17;26.60;60.60
19174;DHT22;9719;49.322;8.536;2023-07-13T19:47:20;26.50;61.10
19174;DHT22;9719;49.322;8.536;2023-07-13T19:52:26;26.40;61.30
19174;DHT22;9719;49.322;8.536;2023-07-13T19:57:28;26.40;61.70
19174;DHT22;9719;49.322;8.536;2023-07-13T20:02:30;26.30;61.80
19174;DHT22;9719;49.322;8.536;2023-07-13T20:07:33;26.20;61.90
19174;DHT22;9719;49.322;8.536;2023-07-13T20:12:37;26.10;62.00
19174;DHT22;9719;49.322;8.536;2023-07-13T20:17:38;26.10;62.00
19174;DHT22;9719;49.322;8.536;2023-07-13T20:22:43;26.00;61.90
19174;DHT22;9719;49.322;8.536;2023-07-13T20:27:44;26.00;62.10
19174;DHT22;9719;49.322;8.536;2023-07-13T20:32:46;26.00;62.00
19174;DHT22;9719;49.322;8.536;2023-07-13T20:37:50;25.90;62.50
19174;DHT22;9719;49.322;8.536;2023-07-13T20:42:52;25.90;63.00
19174;DHT22;9719;49.322;8.536;2023-07-13T20:47:57;25.90;63.60
19174;DHT22;9719;49.322;8.536;2023-07-13T20:53:01;25.90;63.80
19174;DHT22;9719;49.322;8.536;2023-07-13T20:58:03;25.90;63.60
19174;DHT22;9719;49.322;8.536;2023-07-13T21:03:07;25.80;63.80
19174;DHT22;9719;49.322;8.536;2023-07-13T21:08:18;25.80;64.20
19174;DHT22;9719;49.322;8.536;2023-07-13T21:13:20;25.70;65.20
19174;DHT22;9719;49.322;8.536;2023-07-13T21:18:23;25.70;64.70
19174;DHT22;9719;49.322;8.536;2023-07-13T21:23:29;25.70;64.90
19174;DHT22;9719;49.322;8.536;2023-07-13T21:28:35;25.70;64.80
19174;DHT22;9719;49.322;8.536;2023-07-13T21:33:37;25.60;65.00
19174;DHT22;9719;49.322;8.536;2023-07-13T21:38:41;25.60;65.30
19174;DHT22;9719;49.322;8.536;2023-07-13T21:43:43;25.50;65.80
19174;DHT22;9719;49.322;8.536;2023-07-13T21:48:45;25.40;66.10
19174;DHT22;9719;49.322;8.536;2023-07-13T21:53:49;25.40;66.50
19174;DHT22;9719;49.322;8.536;2023-07-13T21:58:51;25.30;66.60
19174;DHT22;9719;49.322;8.536;2023-07-13T22:03:55;25.20;67.00
19174;DHT22;9719;49.322;8.536;2023-07-13T22:08:59;25.10;67.00
19174;DHT22;9719;49.322;8.536;2023-07-13T22:14:00;25.00;67.40
19174;DHT22;9719;49.322;8.536;2023-07-13T22:19:11;25.00;67.60
19174;DHT22;9719;49.322;8.536;2023-07-13T22:24:16;24.90;68.10
19174;DHT22;9719;49.322;8.536;2023-07-13T22:29:20;24.90;68.60
19174;DHT22;9719;49.322;8.536;2023-07-13T22:34:24;24.80;68.70
19174;DHT22;9719;49.322;8.536;2023-07-13T22:39:28;24.80;68.50
19174;DHT22;9719;49.322;8.536;2023-07-13T22:44:32;24.70;68.70
19174;DHT22;9719;49.322;8.536;2023-07-13T22:49:34;24.70;69.00
19174;DHT22;9719;49.322;8.536;2023-07-13T22:54:38;24.60;69.60
19174;DHT22;9719;49.322;8.536;2023-07-13T22:59:41;24.60;70.80
19174;DHT22;9719;49.322;8.536;2023-07-13T23:04:43;24.60;71.40
19174;DHT22;9719;49.322;8.536;2023-07-13T23:09:46;24.60;70.80
19174;DHT22;9719;49.322;8.536;2023-07-13T23:14:47;24.50;70.50
19174;DHT22;9719;49.322;8.536;2023-07-13T23:19:49;24.50;70.40
19174;DHT22;9719;49.322;8.536;2023-07-13T23:24:52;24.50;70.50
19174;DHT22;9719;49.322;8.536;2023-07-13T23:29:54;24.50;70.70
19174;DHT22;9719;49.322;8.536;2023-07-13T23:34:56;24.40;70.70
19174;DHT22;9719;49.322;8.536;2023-07-13T23:39:59;24.50;70.80
19174;DHT22;9719;49.322;8.536;2023-07-13T23:45:02;24.40;70.70
19174;DHT22;9719;49.322;8.536;2023-07-13T23:50:10;24.40;70.70
19174;DHT22;9719;49.322;8.536;2023-07-13T23:55:15;24.40;70.50
